createdAt,value
2022-07-26T00:01:02.471Z,19.10
2022-07-26T00:03:30.600Z,19.20
2022-07-26T00:05:58.741Z,19.20
2022-07-26T00:08:28.114Z,19.30
2022-07-26T00:10:56.312Z,19.30
2022-07-26T00:13:24.366Z,19.40
2022-07-26T00:15:56.166Z,19.40
2022-07-26T00:18:24.236Z,19.40
2022-07-26T00:20:52.835Z,19.40
2022-07-26T00:23:23.790Z,19.40
2022-07-26T00:25:53.156Z,19.50
2022-07-26T00:28:21.174Z,19.50
2022-07-26T00:30:49.452Z,19.50
2022-07-26T00:33:17.515Z,19.50
2022-07-26T00:35:45.634Z,19.60
2022-07-26T00:38:13.732Z,19.60
2022-07-26T00:40:41.779Z,19.50
2022-07-26T00:43:11.158Z,19.70
2022-07-26T00:45:39.239Z,19.80
2022-07-26T00:48:07.812Z,20.00
2022-07-26T00:50:36.456Z,20.20
2022-07-26T00:53:04.533Z,20.50
2022-07-26T00:55:33.271Z,20.80
2022-07-26T00:58:02.260Z,21.00
2022-07-26T01:00:31.580Z,21.10
2022-07-26T01:03:00.581Z,21.30
2022-07-26T01:05:29.127Z,21.40
2022-07-26T01:07:57.898Z,21.40
2022-07-26T01:10:26.708Z,21.40
2022-07-26T01:12:54.865Z,21.20
2022-07-26T01:15:23.314Z,21.20
2022-07-26T01:17:52.855Z,21.10
2022-07-26T01:20:21.043Z,21.00
2022-07-26T01:22:50.491Z,20.90
2022-07-26T01:25:28.633Z,20.90
2022-07-26T01:27:56.764Z,21.00
2022-07-26T01:30:24.815Z,21.00
2022-07-26T01:32:52.991Z,21.00
2022-07-26T01:35:21.219Z,20.90
2022-07-26T01:37:50.624Z,20.90
2022-07-26T01:40:18.859Z,20.80
2022-07-26T01:42:46.902Z,20.70
2022-07-26T01:45:14.925Z,20.50
2022-07-26T01:47:43.075Z,20.30
2022-07-26T01:50:12.197Z,20.20
2022-07-26T01:52:40.296Z,20.00
2022-07-26T01:55:10.734Z,20.00
2022-07-26T01:57:38.800Z,19.80
2022-07-26T02:00:08.540Z,19.70
2022-07-26T02:02:36.891Z,19.80
2022-07-26T02:05:05.552Z,19.70
2022-07-26T02:07:38.283Z,19.60
2022-07-26T02:10:10.022Z,19.60
2022-07-26T02:12:40.923Z,19.50
2022-07-26T02:15:10.508Z,19.60
2022-07-26T02:17:38.616Z,19.60
2022-07-26T02:20:08.635Z,19.50
2022-07-26T02:22:38.599Z,19.50
2022-07-26T02:25:07.489Z,19.40
2022-07-26T02:27:38.342Z,19.30
2022-07-26T02:30:07.227Z,19.20
2022-07-26T02:32:35.335Z,19.20
2022-07-26T02:35:03.300Z,19.10
2022-07-26T02:37:31.303Z,19.00
2022-07-26T02:40:06.515Z,19.10
2022-07-26T02:42:34.702Z,19.10
2022-07-26T02:45:04.265Z,19.00
2022-07-26T02:47:35.342Z,18.90
2022-07-26T02:50:03.394Z,18.80
2022-07-26T02:52:31.435Z,18.80
2022-07-26T02:54:59.584Z,18.70
2022-07-26T02:57:27.699Z,18.60
2022-07-26T02:59:56.220Z,18.50
2022-07-26T03:02:25.674Z,18.50
2022-07-26T03:04:53.755Z,18.60
2022-07-26T03:07:21.767Z,18.70
2022-07-26T03:09:49.748Z,18.80
2022-07-26T03:12:17.804Z,18.80
2022-07-26T03:14:45.892Z,18.80
2022-07-26T03:17:13.951Z,18.80
2022-07-26T03:19:43.470Z,18.60
2022-07-26T03:22:12.940Z,18.50
2022-07-26T03:24:40.945Z,18.40
2022-07-26T03:27:08.944Z,18.30
2022-07-26T03:29:37.605Z,18.40
2022-07-26T03:32:05.984Z,18.30
2022-07-26T03:34:34.472Z,18.10
2022-07-26T03:37:04.163Z,18.20
2022-07-26T03:39:32.408Z,18.30
2022-07-26T03:42:00.380Z,18.30
2022-07-26T03:44:28.425Z,18.30
2022-07-26T03:46:56.491Z,18.30
2022-07-26T03:49:24.535Z,18.30
2022-07-26T03:51:52.622Z,18.20
2022-07-26T03:54:22.011Z,18.30
2022-07-26T03:56:49.152Z,18.20
2022-07-26T03:59:18.524Z,18.20
2022-07-26T04:01:48.282Z,18.00
2022-07-26T04:04:18.399Z,18.10
2022-07-26T04:06:49.362Z,18.00
2022-07-26T04:09:18.619Z,18.00
2022-07-26T04:11:48.588Z,18.00
2022-07-26T04:14:17.400Z,18.00
2022-07-26T04:16:45.560Z,18.10
2022-07-26T04:19:13.939Z,18.00
2022-07-26T04:21:41.907Z,17.90
2022-07-26T04:24:10.847Z,17.90
2022-07-26T04:26:39.046Z,17.80
2022-07-26T04:29:08.443Z,17.90
2022-07-26T04:31:39.050Z,17.90
2022-07-26T04:34:07.775Z,17.90
2022-07-26T04:36:35.995Z,17.90
2022-07-26T04:39:04.203Z,17.90
2022-07-26T04:41:32.258Z,18.00
2022-07-26T04:44:00.209Z,17.90
2022-07-26T04:46:29.638Z,17.90
2022-07-26T04:48:57.718Z,17.80
2022-07-26T04:51:26.478Z,17.80
2022-07-26T04:53:54.601Z,17.80
2022-07-26T04:56:22.893Z,17.80
2022-07-26T04:58:51.640Z,17.80
2022-07-26T05:01:19.761Z,17.90
2022-07-26T05:03:49.320Z,17.80
2022-07-26T05:06:17.636Z,17.80
2022-07-26T05:08:45.783Z,17.70
2022-07-26T05:11:13.776Z,17.70
2022-07-26T05:13:41.832Z,17.70
2022-07-26T05:16:11.950Z,17.70
2022-07-26T05:18:48.634Z,17.80
2022-07-26T05:21:19.503Z,17.60
2022-07-26T05:23:47.549Z,17.60
2022-07-26T05:26:16.056Z,17.70
2022-07-26T05:28:44.444Z,17.70
2022-07-26T05:31:12.612Z,17.70
2022-07-26T05:33:40.660Z,17.70
2022-07-26T05:36:09.455Z,17.70
2022-07-26T05:38:39.106Z,17.70
2022-07-26T05:41:07.461Z,17.70
2022-07-26T05:43:41.678Z,17.70
2022-07-26T05:46:11.283Z,17.70
2022-07-26T05:48:39.622Z,17.80
2022-07-26T05:51:07.943Z,17.70
2022-07-26T05:53:36.029Z,17.70
2022-07-26T05:56:06.464Z,17.70
2022-07-26T05:58:34.432Z,17.60
2022-07-26T06:01:02.419Z,17.60
2022-07-26T06:03:31.971Z,17.60
2022-07-26T06:06:00.363Z,17.60
2022-07-26T06:08:28.436Z,17.60
2022-07-26T06:10:56.846Z,17.50
2022-07-26T06:13:26.330Z,17.60
2022-07-26T06:15:54.540Z,17.70
2022-07-26T06:18:22.809Z,17.70
2022-07-26T06:20:51.799Z,17.70
2022-07-26T06:23:30.994Z,17.70
2022-07-26T06:26:03.609Z,17.60
2022-07-26T06:28:33.423Z,17.50
2022-07-26T06:31:01.548Z,17.50
2022-07-26T06:33:29.581Z,17.50
2022-07-26T06:35:57.608Z,17.60
2022-07-26T06:38:25.830Z,17.60
2022-07-26T06:40:54.004Z,17.60
2022-07-26T06:43:23.325Z,17.70
2022-07-26T06:45:53.055Z,17.70
2022-07-26T06:48:21.052Z,17.80
2022-07-26T06:50:49.993Z,17.80
2022-07-26T06:53:18.318Z,17.80
2022-07-26T06:55:46.310Z,17.90
2022-07-26T06:58:14.352Z,17.90
2022-07-26T07:00:42.490Z,17.90
2022-07-26T07:03:11.933Z,18.00
2022-07-26T07:05:40.133Z,18.10
2022-07-26T07:08:08.183Z,18.10
2022-07-26T07:10:38.474Z,18.20
2022-07-26T07:13:06.606Z,18.10
2022-07-26T07:15:34.731Z,18.10
2022-07-26T07:18:02.712Z,18.20
2022-07-26T07:20:32.133Z,18.20
2022-07-26T07:23:00.146Z,18.30
2022-07-26T07:25:34.393Z,18.40
2022-07-26T07:28:02.695Z,18.40
2022-07-26T07:30:30.720Z,18.50
2022-07-26T07:32:58.815Z,18.60
2022-07-26T07:35:31.997Z,18.60
2022-07-26T07:38:02.485Z,18.80
2022-07-26T07:40:30.715Z,18.80
2022-07-26T07:42:59.252Z,18.90
2022-07-26T07:45:27.284Z,19.00
2022-07-26T07:47:55.716Z,19.10
2022-07-26T07:50:27.106Z,19.30
2022-07-26T07:52:57.931Z,19.40
2022-07-26T07:55:46.538Z,19.50
2022-07-26T07:58:17.468Z,19.60
2022-07-26T08:00:48.507Z,19.80
2022-07-26T08:03:17.729Z,19.70
2022-07-26T08:05:46.813Z,19.80
2022-07-26T08:08:18.493Z,19.70
2022-07-26T08:10:52.239Z,19.80
2022-07-26T08:13:21.677Z,20.00
2022-07-26T08:15:50.276Z,20.10
2022-07-26T08:18:18.396Z,20.20
2022-07-26T08:20:49.847Z,20.30
2022-07-26T08:23:17.927Z,20.40
2022-07-26T08:25:56.210Z,20.50
2022-07-26T08:28:46.354Z,20.60
2022-07-26T08:31:14.682Z,20.70
2022-07-26T08:33:46.437Z,20.70
2022-07-26T08:36:15.460Z,20.70
2022-07-26T08:38:43.655Z,20.70
2022-07-26T08:41:13.049Z,20.60
2022-07-26T08:43:51.005Z,20.50
2022-07-26T08:46:25.312Z,20.40
2022-07-26T08:48:55.274Z,20.40
2022-07-26T08:51:26.152Z,20.30
2022-07-26T08:54:02.277Z,20.30
2022-07-26T08:56:36.595Z,20.20
2022-07-26T08:59:19.575Z,20.10
2022-07-26T09:01:56.843Z,19.90
2022-07-26T09:04:37.554Z,20.00
2022-07-26T09:07:13.695Z,20.00
2022-07-26T09:09:58.507Z,20.10
2022-07-26T09:12:30.021Z,20.10
2022-07-26T09:14:58.850Z,20.10
2022-07-26T09:17:39.603Z,20.10
2022-07-26T09:20:10.896Z,20.30
2022-07-26T09:22:39.797Z,20.50
2022-07-26T09:25:22.447Z,20.40
2022-07-26T09:27:52.829Z,20.30
2022-07-26T09:30:21.412Z,20.50
2022-07-26T09:33:02.445Z,20.70
2022-07-26T09:35:51.173Z,20.80
2022-07-26T09:38:20.427Z,20.90
2022-07-26T09:40:51.399Z,20.60
2022-07-26T09:43:24.144Z,20.60
2022-07-26T09:46:06.053Z,20.70
2022-07-26T09:49:06.964Z,20.70
2022-07-26T09:51:39.914Z,20.60
2022-07-26T09:54:08.883Z,20.90
2022-07-26T09:56:49.217Z,20.90
2022-07-26T09:59:20.132Z,20.90
2022-07-26T10:01:48.769Z,20.80
2022-07-26T10:04:17.878Z,20.80
2022-07-26T10:06:46.311Z,20.90
2022-07-26T10:09:15.794Z,21.10
2022-07-26T10:11:48.756Z,21.20
2022-07-26T10:14:38.819Z,21.50
2022-07-26T10:17:45.766Z,21.30
2022-07-26T10:20:58.760Z,20.90
2022-07-26T10:23:51.288Z,20.80
2022-07-26T10:26:43.322Z,20.80
2022-07-26T10:29:26.462Z,20.80
2022-07-26T10:32:15.509Z,20.80
2022-07-26T10:34:44.339Z,20.70
2022-07-26T10:37:22.159Z,20.90
2022-07-26T10:39:50.351Z,20.90
2022-07-26T10:42:18.451Z,20.80
2022-07-26T10:44:46.504Z,20.70
2022-07-26T10:47:18.637Z,20.70
2022-07-26T10:49:58.668Z,20.60
2022-07-26T10:52:28.161Z,20.40
2022-07-26T10:55:18.002Z,20.50
2022-07-26T10:57:50.226Z,20.40
2022-07-26T11:00:24.316Z,20.40
2022-07-26T11:03:01.067Z,20.50
2022-07-26T11:05:32.039Z,20.50
2022-07-26T11:08:05.255Z,20.50
2022-07-26T11:10:34.763Z,20.60
2022-07-26T11:13:05.475Z,20.70
2022-07-26T11:15:33.637Z,20.80
2022-07-26T11:18:11.790Z,20.70
2022-07-26T11:20:39.947Z,20.80
2022-07-26T11:23:23.992Z,20.70
2022-07-26T11:26:06.874Z,20.70
2022-07-26T11:28:55.984Z,20.60
2022-07-26T11:31:48.160Z,20.50
2022-07-26T11:34:21.986Z,20.40
2022-07-26T11:36:52.125Z,20.30
2022-07-26T11:39:24.084Z,20.20
2022-07-26T11:41:57.556Z,20.20
2022-07-26T11:44:26.016Z,20.20
2022-07-26T11:46:54.557Z,20.20
2022-07-26T11:49:51.977Z,20.30
2022-07-26T11:52:15.481Z,20.30
2022-07-26T11:54:53.937Z,20.50
2022-07-26T11:57:22.167Z,20.60
2022-07-26T11:59:51.450Z,20.80
2022-07-26T12:02:21.885Z,21.00
2022-07-26T12:05:11.435Z,20.90
2022-07-26T12:07:39.568Z,21.00
2022-07-26T12:10:08.427Z,21.00
2022-07-26T12:12:36.839Z,21.00
2022-07-26T12:15:07.049Z,21.10
2022-07-26T12:17:35.857Z,21.10
2022-07-26T12:20:17.440Z,21.00
2022-07-26T12:22:55.883Z,21.10
2022-07-26T12:25:28.182Z,21.30
2022-07-26T12:27:56.249Z,21.60
2022-07-26T12:30:25.774Z,21.80
2022-07-26T12:33:02.865Z,21.90
2022-07-26T12:35:35.522Z,21.90
2022-07-26T12:38:04.024Z,21.90
2022-07-26T12:40:41.027Z,22.00
2022-07-26T12:43:09.979Z,22.00
2022-07-26T12:45:38.140Z,21.80
2022-07-26T12:48:10.939Z,21.70
2022-07-26T12:50:40.484Z,21.90
2022-07-26T12:53:12.642Z,22.00
2022-07-26T12:55:41.072Z,22.10
2022-07-26T12:58:09.889Z,21.90
2022-07-26T13:00:37.959Z,21.80
2022-07-26T13:03:05.993Z,21.80
2022-07-26T13:05:34.126Z,21.90
2022-07-26T13:08:03.458Z,21.90
2022-07-26T13:10:34.537Z,21.90
2022-07-26T13:13:03.624Z,22.00
2022-07-26T13:15:35.277Z,22.00
2022-07-26T13:18:04.793Z,22.00
2022-07-26T13:20:32.832Z,22.00
2022-07-26T13:23:03.551Z,21.90
2022-07-26T13:25:34.015Z,22.00
2022-07-26T13:28:06.540Z,22.10
2022-07-26T13:30:34.632Z,22.20
2022-07-26T13:33:02.740Z,22.10
2022-07-26T13:35:30.820Z,22.00
2022-07-26T13:37:58.954Z,21.60
2022-07-26T13:40:31.555Z,21.30
2022-07-26T13:43:00.611Z,21.30
2022-07-26T13:45:29.604Z,21.30
2022-07-26T13:47:58.790Z,21.20
2022-07-26T13:50:27.723Z,21.30
2022-07-26T13:52:56.359Z,21.20
2022-07-26T13:55:25.482Z,21.20
2022-07-26T13:57:56.809Z,21.20
2022-07-26T14:00:25.925Z,21.10
2022-07-26T14:02:54.116Z,21.30
2022-07-26T14:05:22.399Z,21.70
2022-07-26T14:07:50.535Z,21.90
2022-07-26T14:10:18.856Z,22.00
2022-07-26T14:12:47.714Z,22.40
2022-07-26T14:15:22.044Z,22.40
2022-07-26T14:17:51.054Z,22.20
2022-07-26T14:20:19.345Z,22.00
2022-07-26T14:22:48.281Z,21.90
2022-07-26T14:25:16.323Z,21.60
2022-07-26T14:27:44.328Z,21.40
2022-07-26T14:30:13.861Z,21.40
2022-07-26T14:32:43.473Z,21.30
2022-07-26T14:35:11.872Z,21.20
2022-07-26T14:37:44.438Z,21.10
2022-07-26T14:40:15.659Z,20.90
2022-07-26T14:42:43.977Z,21.00
2022-07-26T14:45:12.308Z,21.00
2022-07-26T14:47:40.621Z,21.00
2022-07-26T14:50:11.876Z,21.00
2022-07-26T14:52:40.896Z,21.10
2022-07-26T14:55:10.305Z,21.10
2022-07-26T14:57:39.770Z,21.10
2022-07-26T15:00:10.202Z,21.20
2022-07-26T15:02:40.842Z,21.20
2022-07-26T15:05:11.630Z,21.20
2022-07-26T15:07:40.788Z,21.40
2022-07-26T15:10:10.826Z,21.50
2022-07-26T15:12:39.576Z,21.70
2022-07-26T15:15:08.940Z,21.80
2022-07-26T15:17:37.868Z,21.90
2022-07-26T15:20:07.562Z,21.90
2022-07-26T15:22:37.684Z,21.80
2022-07-26T15:25:06.471Z,21.70
2022-07-26T15:27:34.496Z,21.40
2022-07-26T15:30:06.975Z,21.40
2022-07-26T15:32:38.459Z,21.50
2022-07-26T15:35:07.492Z,21.80
2022-07-26T15:37:44.829Z,21.80
2022-07-26T15:40:13.865Z,21.80
2022-07-26T15:42:45.664Z,21.90
2022-07-26T15:45:14.710Z,21.90
2022-07-26T15:47:54.258Z,22.20
2022-07-26T15:50:24.201Z,22.50
2022-07-26T15:52:53.680Z,22.40
2022-07-26T15:55:21.836Z,22.30
2022-07-26T15:57:49.917Z,22.30
2022-07-26T16:00:18.599Z,22.30
2022-07-26T16:02:47.002Z,22.50
2022-07-26T16:05:15.386Z,22.30
2022-07-26T16:07:43.532Z,22.20
2022-07-26T16:10:14.972Z,22.20
2022-07-26T16:12:43.379Z,22.30
2022-07-26T16:15:12.628Z,22.10
2022-07-26T16:17:41.232Z,22.10
2022-07-26T16:20:09.801Z,22.30
2022-07-26T16:22:41.373Z,22.30
2022-07-26T16:25:13.884Z,22.40
2022-07-26T16:27:43.195Z,22.40
2022-07-26T16:30:13.144Z,22.40
2022-07-26T16:32:41.433Z,22.00
2022-07-26T16:35:10.515Z,22.30
2022-07-26T16:37:38.607Z,22.60
2022-07-26T16:40:08.636Z,22.60
2022-07-26T16:42:38.126Z,22.50
2022-07-26T16:45:06.730Z,22.50
2022-07-26T16:47:34.691Z,22.60
2022-07-26T16:50:04.333Z,22.70
2022-07-26T16:52:32.699Z,22.60
2022-07-26T16:55:01.171Z,22.60
2022-07-26T16:57:29.126Z,22.40
2022-07-26T16:59:58.567Z,22.30
2022-07-26T17:02:26.620Z,22.30
2022-07-26T17:04:57.148Z,22.20
2022-07-26T17:07:26.257Z,22.20
2022-07-26T17:09:55.609Z,22.30
2022-07-26T17:12:24.403Z,22.30
2022-07-26T17:14:53.076Z,22.30
2022-07-26T17:17:22.585Z,22.40
2022-07-26T17:19:50.995Z,22.40
2022-07-26T17:22:19.133Z,22.30
2022-07-26T17:24:47.916Z,22.10
2022-07-26T17:27:15.973Z,22.20
2022-07-26T17:29:44.476Z,22.10
2022-07-26T17:32:12.584Z,22.20
2022-07-26T17:34:42.585Z,22.20
2022-07-26T17:37:10.799Z,22.00
2022-07-26T17:39:50.779Z,21.90
2022-07-26T17:42:21.509Z,21.70
2022-07-26T17:44:49.793Z,21.60
2022-07-26T17:47:27.454Z,21.60
2022-07-26T17:50:19.465Z,21.50
2022-07-26T17:52:50.135Z,21.50
2022-07-26T17:55:19.605Z,21.40
2022-07-26T17:57:48.160Z,21.40
2022-07-26T18:00:17.483Z,21.30
2022-07-26T18:02:45.894Z,21.20
2022-07-26T18:05:15.725Z,21.20
2022-07-26T18:07:43.793Z,21.20
2022-07-26T18:10:12.072Z,21.10
2022-07-26T18:12:40.164Z,21.10
2022-07-26T18:15:09.198Z,21.00
2022-07-26T18:17:37.740Z,20.90
2022-07-26T18:20:07.230Z,20.90
2022-07-26T18:22:36.667Z,20.90
2022-07-26T18:25:05.526Z,20.90
2022-07-26T18:27:34.367Z,20.80
2022-07-26T18:30:02.371Z,20.80
2022-07-26T18:32:30.531Z,20.70
2022-07-26T18:34:58.565Z,20.70
2022-07-26T18:37:26.735Z,20.50
2022-07-26T18:39:58.101Z,20.40
2022-07-26T18:42:26.351Z,20.30
2022-07-26T18:44:56.692Z,20.20
2022-07-26T18:47:24.764Z,20.00
2022-07-26T18:49:52.782Z,20.00
2022-07-26T18:52:28.932Z,19.90
2022-07-26T18:55:02.516Z,19.90
2022-07-26T18:57:30.610Z,19.90
2022-07-26T18:59:58.640Z,19.80
2022-07-26T19:02:26.914Z,19.80
2022-07-26T19:04:55.073Z,19.80
2022-07-26T19:07:23.083Z,19.60
2022-07-26T19:09:55.060Z,19.70
2022-07-26T19:12:28.303Z,19.60
2022-07-26T19:14:56.591Z,19.60
2022-07-26T19:17:24.611Z,19.60
2022-07-26T19:19:52.811Z,19.60
2022-07-26T19:22:23.274Z,19.50
2022-07-26T19:24:51.495Z,19.50
2022-07-26T19:27:19.661Z,19.40
2022-07-26T19:29:49.685Z,19.40
2022-07-26T19:32:17.981Z,19.40
2022-07-26T19:34:48.172Z,19.30
2022-07-26T19:37:21.023Z,19.10
2022-07-26T19:39:49.755Z,19.10
2022-07-26T19:42:18.323Z,19.00
2022-07-26T19:44:47.890Z,18.90
2022-07-26T19:47:15.964Z,19.00
2022-07-26T19:49:44.011Z,19.00
2022-07-26T19:52:12.261Z,19.00
2022-07-26T19:54:40.975Z,19.00
2022-07-26T19:57:09.219Z,18.80
2022-07-26T19:59:37.234Z,18.60
2022-07-26T20:02:06.949Z,18.50
2022-07-26T20:04:35.048Z,18.40
2022-07-26T20:07:04.377Z,18.30
2022-07-26T20:09:32.826Z,18.20
2022-07-26T20:12:01.462Z,18.20
2022-07-26T20:14:29.677Z,18.20
2022-07-26T20:16:58.151Z,18.30
2022-07-26T20:19:28.130Z,18.30
2022-07-26T20:21:56.334Z,18.30
2022-07-26T20:24:24.522Z,18.20
2022-07-26T20:26:52.521Z,18.30
2022-07-26T20:29:20.625Z,18.30
2022-07-26T20:31:48.595Z,18.20
2022-07-26T20:34:16.635Z,18.20
2022-07-26T20:36:46.640Z,18.10
2022-07-26T20:39:15.385Z,18.00
2022-07-26T20:41:43.457Z,18.00
2022-07-26T20:44:12.322Z,17.90
2022-07-26T20:46:41.776Z,17.80
2022-07-26T20:49:10.806Z,17.90
2022-07-26T20:51:39.679Z,17.90
2022-07-26T20:54:10.217Z,17.90
2022-07-26T20:56:38.615Z,17.90
2022-07-26T20:59:07.294Z,17.80
2022-07-26T21:01:35.888Z,17.80
2022-07-26T21:04:04.107Z,17.80
2022-07-26T21:06:33.171Z,17.80
2022-07-26T21:09:09.557Z,17.80
2022-07-26T21:11:41.299Z,17.90
2022-07-26T21:14:09.324Z,18.00
2022-07-26T21:16:38.060Z,18.00
2022-07-26T21:19:06.528Z,18.00
2022-07-26T21:21:36.968Z,18.00
2022-07-26T21:24:05.811Z,18.00
2022-07-26T21:26:33.962Z,18.10
2022-07-26T21:29:03.299Z,18.00
2022-07-26T21:31:31.364Z,17.90
2022-07-26T21:33:59.839Z,17.90
2022-07-26T21:36:28.085Z,17.90
2022-07-26T21:38:56.053Z,17.80
2022-07-26T21:41:24.317Z,17.60
2022-07-26T21:43:52.405Z,17.60
2022-07-26T21:46:21.916Z,17.50
2022-07-26T21:48:50.072Z,17.50
2022-07-26T21:51:18.111Z,17.50
2022-07-26T21:53:46.923Z,17.40
2022-07-26T21:56:15.303Z,17.40
2022-07-26T21:58:43.348Z,17.40
2022-07-26T22:01:12.679Z,17.40
2022-07-26T22:03:43.412Z,17.50
2022-07-26T22:06:11.855Z,17.40
2022-07-26T22:08:40.468Z,17.40
2022-07-26T22:11:08.490Z,17.50
2022-07-26T22:13:36.726Z,17.50
2022-07-26T22:16:05.174Z,17.50
2022-07-26T22:18:33.395Z,17.50
2022-07-26T22:21:02.719Z,17.50
2022-07-26T22:23:31.037Z,17.40
2022-07-26T22:25:59.937Z,17.40
2022-07-26T22:28:28.119Z,17.40
2022-07-26T22:30:56.409Z,17.30
2022-07-26T22:33:24.690Z,17.30
2022-07-26T22:35:53.330Z,17.30
2022-07-26T22:38:22.866Z,17.30
2022-07-26T22:40:51.151Z,17.40
2022-07-26T22:43:19.168Z,17.40
2022-07-26T22:45:47.237Z,17.40
2022-07-26T22:48:15.308Z,17.30
2022-07-26T22:50:44.191Z,17.20
2022-07-26T22:53:12.340Z,17.10
2022-07-26T22:55:42.016Z,17.00
2022-07-26T22:58:10.166Z,17.00
2022-07-26T23:00:38.242Z,17.00
2022-07-26T23:03:13.225Z,17.00
2022-07-26T23:05:49.568Z,16.80
2022-07-26T23:11:07.869Z,16.50
2022-07-26T23:13:35.872Z,16.50
2022-07-26T23:16:04.022Z,16.60
2022-07-26T23:18:32.343Z,16.50
2022-07-26T23:21:01.706Z,16.50
2022-07-26T23:23:31.799Z,16.40
2022-07-26T23:26:00.235Z,16.30
2022-07-26T23:28:36.781Z,16.30
2022-07-26T23:31:07.773Z,16.20
2022-07-26T23:33:52.293Z,16.10
2022-07-26T23:36:26.196Z,16.00
2022-07-26T23:38:55.180Z,16.00
2022-07-26T23:41:23.141Z,15.90
2022-07-26T23:43:52.850Z,15.90
2022-07-26T23:46:21.265Z,15.90
2022-07-26T23:48:49.687Z,15.70
2022-07-26T23:51:17.778Z,15.70
2022-07-26T23:53:45.923Z,15.80
2022-07-26T23:56:14.047Z,15.60
2022-07-26T23:58:42.303Z,15.60
